Time;durP1;ratioP1;P1;durP2;ratioP2;P2;SDS_P1;SDS_P2;PMS_P1;PMS_P2;Temp;Humidity;BMP_temperature;BMP_pressure;BME280_temperature;BME280_humidity;BME280_pressure;Samples;Min_cycle;Max_cycle;Signal;HPM_P1;HPM_P2
2022/05/28 00:01:35;;;;;;;17.50;4.70;;;11.40;99.90;;;;;;5056142;28;20066;-64
2022/05/28 00:04:04;;;;;;;24.08;4.70;;;11.40;99.90;;;;;;5057522;28;20398;-64
2022/05/28 00:06:33;;;;;;;14.45;4.30;;;11.40;99.90;;;;;;5057634;28;20041;-64
2022/05/28 00:09:00;;;;;;;12.30;4.10;;;11.40;99.90;;;;;;5054594;28;20059;-65
2022/05/28 00:11:29;;;;;;;17.45;3.75;;;11.30;99.90;;;;;;5050709;28;20037;-65
2022/05/28 00:13:55;;;;;;;22.25;4.72;;;11.20;99.90;;;;;;5055976;28;20125;-64
2022/05/28 00:16:21;;;;;;;15.15;3.70;;;11.20;99.90;;;;;;5061666;28;20076;-64
2022/05/28 00:18:47;;;;;;;14.02;4.22;;;11.20;99.90;;;;;;5054387;28;20047;-64
2022/05/28 00:21:14;;;;;;;19.58;3.95;;;11.10;99.90;;;;;;5051743;28;20049;-64
2022/05/28 00:23:41;;;;;;;12.90;4.07;;;11.10;99.90;;;;;;5060916;28;20508;-64
2022/05/28 00:26:07;;;;;;;21.10;4.47;;;11.00;99.90;;;;;;5062893;28;20040;-64
2022/05/28 00:28:34;;;;;;;21.40;4.35;;;11.00;99.90;;;;;;5057075;28;20040;-64
2022/05/28 00:31:00;;;;;;;17.55;3.88;;;11.00;99.90;;;;;;5051305;28;20087;-64
2022/05/28 00:33:27;;;;;;;16.73;4.20;;;11.00;99.90;;;;;;5050027;28;20052;-65
2022/05/28 00:35:53;;;;;;;13.95;4.47;;;10.90;99.90;;;;;;5057414;28;20041;-64
2022/05/28 00:38:19;;;;;;;23.58;4.72;;;10.90;99.90;;;;;;5050649;28;20486;-64
2022/05/28 00:40:47;;;;;;;10.23;3.70;;;10.80;99.90;;;;;;5061590;28;20044;-64
2022/05/28 00:43:12;;;;;;;18.75;4.40;;;10.80;99.90;;;;;;5054517;28;20048;-64
2022/05/28 00:45:39;;;;;;;18.52;4.05;;;10.80;99.90;;;;;;5052426;28;20098;-64
2022/05/28 00:48:05;;;;;;;14.23;4.05;;;10.80;99.90;;;;;;5050592;28;20512;-64
2022/05/28 00:50:32;;;;;;;10.38;3.50;;;10.80;99.90;;;;;;5050694;28;20573;-64
2022/05/28 00:52:58;;;;;;;13.73;3.50;;;10.70;99.90;;;;;;5056584;28;20798;-64
2022/05/28 00:55:24;;;;;;;13.90;4.38;;;10.70;99.90;;;;;;5052434;28;20033;-64
2022/05/28 00:57:50;;;;;;;16.50;4.13;;;10.70;99.90;;;;;;5061934;28;20063;-64
2022/05/28 01:00:20;;;;;;;20.17;4.50;;;10.70;99.90;;;;;;5056953;28;20045;-64
2022/05/28 01:03:10;;;;;;;21.10;3.67;;;10.60;99.90;;;;;;5051836;28;20040;-64
2022/05/28 01:06:05;;;;;;;14.55;4.35;;;10.60;99.90;;;;;;5056930;28;20041;-64
2022/05/28 01:08:52;;;;;;;18.10;4.38;;;10.60;99.90;;;;;;5052017;28;20120;-64
2022/05/28 01:11:45;;;;;;;9.83;3.57;;;10.60;99.90;;;;;;5054203;28;20167;-64
2022/05/28 01:14:14;;;;;;;15.10;4.32;;;10.60;99.90;;;;;;5054797;28;20044;-64
2022/05/28 01:16:53;;;;;;;12.73;3.03;;;10.50;99.90;;;;;;5056380;28;20448;-64
2022/05/28 01:19:43;;;;;;;11.13;4.18;;;10.50;99.90;;;;;;5054443;28;20483;-64
2022/05/28 01:22:28;;;;;;;9.82;3.00;;;10.50;99.90;;;;;;5057321;28;20068;-64
2022/05/28 01:25:15;;;;;;;13.63;3.47;;;10.40;99.90;;;;;;5054488;28;20079;-64
2022/05/28 01:27:46;;;;;;;16.08;3.28;;;10.40;99.90;;;;;;5058538;28;20562;-64
2022/05/28 01:30:14;;;;;;;11.18;3.28;;;10.40;99.90;;;;;;5057479;28;20036;-64
2022/05/28 01:32:41;;;;;;;17.13;4.35;;;10.30;99.90;;;;;;5053325;28;20094;-64
2022/05/28 01:35:12;;;;;;;13.30;3.78;;;10.20;99.90;;;;;;5057148;28;20199;-64
2022/05/28 01:37:38;;;;;;;11.88;3.33;;;10.20;99.90;;;;;;5059626;28;20529;-64
2022/05/28 01:40:08;;;;;;;14.15;4.57;;;10.20;99.90;;;;;;5055282;28;20047;-64
2022/05/28 01:42:36;;;;;;;15.88;3.50;;;10.20;99.90;;;;;;5055982;28;20036;-64
2022/05/28 01:45:05;;;;;;;11.38;4.10;;;10.10;99.90;;;;;;5060806;28;20045;-64
2022/05/28 01:47:32;;;;;;;12.18;3.50;;;10.10;99.90;;;;;;5053353;28;20116;-64
2022/05/28 01:50:00;;;;;;;15.68;3.88;;;10.10;99.90;;;;;;5059876;28;20053;-64
2022/05/28 01:52:28;;;;;;;13.43;3.40;;;10.00;99.90;;;;;;5059136;28;20040;-65
2022/05/28 01:54:57;;;;;;;16.35;4.35;;;10.00;99.90;;;;;;5061332;28;20109;-64
2022/05/28 01:57:23;;;;;;;8.70;3.88;;;10.00;99.90;;;;;;5057779;28;20048;-64
2022/05/28 01:59:49;;;;;;;14.73;4.35;;;9.90;99.90;;;;;;5048508;28;20381;-65
2022/05/28 02:02:15;;;;;;;17.85;4.07;;;9.90;99.90;;;;;;5055730;28;20566;-64
2022/05/28 02:04:44;;;;;;;11.75;3.90;;;9.90;99.90;;;;;;5053184;28;20056;-64
2022/05/28 02:07:10;;;;;;;15.75;4.32;;;9.80;99.90;;;;;;5054616;28;20044;-64
2022/05/28 02:09:44;;;;;;;11.63;4.32;;;9.80;99.90;;;;;;5053617;28;20036;-64
2022/05/28 02:12:19;;;;;;;14.90;3.60;;;9.80;99.90;;;;;;5049747;28;20122;-64
2022/05/28 02:15:06;;;;;;;17.70;3.30;;;9.70;99.90;;;;;;5050370;28;20532;-65
2022/05/28 02:17:49;;;;;;;12.50;3.92;;;9.70;99.90;;;;;;5055192;28;20779;-64
2022/05/28 02:20:53;;;;;;;19.42;4.20;;;9.70;99.90;;;;;;5059376;28;20135;-65
2022/05/28 02:23:27;;;;;;;10.85;3.83;;;9.70;99.90;;;;;;5052003;28;20502;-64
2022/05/28 02:26:01;;;;;;;18.25;4.90;;;9.60;99.90;;;;;;5056775;28;20052;-65
2022/05/28 02:28:29;;;;;;;10.68;4.07;;;9.60;99.90;;;;;;5053980;28;20048;-64
2022/05/28 02:31:02;;;;;;;14.40;4.07;;;9.50;99.90;;;;;;5059308;28;20090;-64
2022/05/28 02:33:32;;;;;;;12.18;4.28;;;9.60;99.90;;;;;;5053121;28;20199;-64
2022/05/28 02:35:58;;;;;;;16.58;4.68;;;9.50;99.90;;;;;;5049589;28;20045;-65
2022/05/28 02:38:24;;;;;;;8.77;3.58;;;9.50;99.90;;;;;;5056905;28;20097;-64
2022/05/28 02:40:50;;;;;;;20.38;4.60;;;9.50;99.90;;;;;;5056244;28;20040;-64
2022/05/28 02:43:16;;;;;;;16.60;4.00;;;9.40;99.90;;;;;;5057200;28;20044;-64
2022/05/28 02:45:41;;;;;;;15.73;4.55;;;9.40;99.90;;;;;;5059598;28;20040;-64
2022/05/28 02:48:07;;;;;;;22.50;4.70;;;9.40;99.90;;;;;;5056844;28;20040;-65
2022/05/28 02:50:33;;;;;;;28.30;5.85;;;9.40;99.90;;;;;;5056868;28;20098;-65
2022/05/28 02:52:59;;;;;;;19.83;5.32;;;9.40;99.90;;;;;;5055138;28;20135;-65
2022/05/28 02:55:25;;;;;;;19.65;4.32;;;9.40;99.90;;;;;;5058292;28;20472;-64
2022/05/28 02:57:50;;;;;;;21.05;4.28;;;9.40;99.90;;;;;;5057186;28;20044;-64
2022/05/28 03:00:18;;;;;;;13.88;5.35;;;9.40;99.90;;;;;;5054930;28;20050;-65
2022/05/28 03:02:44;;;;;;;15.10;4.57;;;9.50;99.90;;;;;;5056330;28;20552;-64
2022/05/28 03:05:19;;;;;;;21.48;4.97;;;9.50;99.90;;;;;;5059010;28;20694;-64
2022/05/28 03:07:45;;;;;;;16.13;4.72;;;9.40;99.90;;;;;;5053233;28;20553;-64
2022/05/28 03:10:11;;;;;;;13.88;4.20;;;9.50;99.90;;;;;;5049993;28;20044;-64
2022/05/28 03:12:38;;;;;;;17.58;4.28;;;9.40;99.90;;;;;;5051576;28;20068;-65
2022/05/28 03:15:05;;;;;;;18.73;4.53;;;9.40;99.90;;;;;;5058808;28;20452;-66
2022/05/28 03:17:30;;;;;;;16.33;4.95;;;9.50;99.90;;;;;;5057207;28;20036;-64
2022/05/28 03:19:59;;;;;;;13.82;4.30;;;9.50;99.90;;;;;;5054008;28;20106;-65
2022/05/28 03:22:25;;;;;;;11.95;3.67;;;9.50;99.90;;;;;;5053450;28;20597;-65
2022/05/28 03:24:50;;;;;;;17.50;5.15;;;9.60;99.90;;;;;;5055966;28;20056;-65
2022/05/28 03:27:16;;;;;;;18.27;4.78;;;9.60;99.90;;;;;;5056996;28;20044;-65
2022/05/28 03:29:41;;;;;;;17.92;4.80;;;9.60;99.90;;;;;;5053857;28;20056;-64
2022/05/28 03:32:07;;;;;;;23.33;5.78;;;9.60;99.90;;;;;;5054828;28;20456;-64
2022/05/28 03:34:33;;;;;;;20.55;4.90;;;9.50;99.90;;;;;;5058600;28;20079;-64
2022/05/28 03:36:59;;;;;;;17.05;4.95;;;9.60;99.90;;;;;;5056493;28;20045;-64
2022/05/28 03:39:25;;;;;;;19.38;4.55;;;9.50;99.90;;;;;;5048272;28;20468;-65
2022/05/28 03:41:51;;;;;;;19.30;6.18;;;9.60;99.90;;;;;;5056065;28;20032;-65
2022/05/28 03:44:16;;;;;;;18.25;5.20;;;9.60;99.90;;;;;;5055239;28;20029;-64
2022/05/28 03:46:43;;;;;;;14.85;4.72;;;9.60;99.90;;;;;;5055089;28;20505;-64
2022/05/28 03:49:27;;;;;;;14.02;4.95;;;9.70;99.90;;;;;;5050610;28;20072;-64
2022/05/28 03:51:53;;;;;;;23.38;5.68;;;9.70;99.90;;;;;;5051633;28;20048;-64
2022/05/28 03:54:19;;;;;;;28.73;6.95;;;9.70;99.90;;;;;;5050315;28;20059;-64
2022/05/28 03:56:46;;;;;;;21.52;5.55;;;9.80;99.90;;;;;;5052772;28;20050;-64
2022/05/28 03:59:12;;;;;;;20.35;5.72;;;9.80;99.90;;;;;;5052181;28;20071;-64
2022/05/28 04:01:38;;;;;;;22.42;4.35;;;9.80;99.90;;;;;;5056112;28;20126;-64
2022/05/28 04:04:04;;;;;;;15.55;6.05;;;9.90;99.90;;;;;;5055742;28;20045;-64
2022/05/28 04:06:30;;;;;;;13.07;4.70;;;9.90;99.90;;;;;;5046477;28;20101;-64
2022/05/28 04:08:56;;;;;;;19.45;5.55;;;9.90;99.90;;;;;;5055393;28;20036;-64
2022/05/28 04:11:22;;;;;;;21.83;5.57;;;10.00;99.90;;;;;;5058587;28;20045;-64
2022/05/28 04:13:47;;;;;;;22.77;5.93;;;10.00;99.90;;;;;;5047378;28;20072;-64
2022/05/28 04:16:14;;;;;;;26.75;5.03;;;10.10;99.90;;;;;;5055792;28;20056;-64
2022/05/28 04:18:40;;;;;;;13.00;5.20;;;10.20;99.90;;;;;;5046712;28;20995;-64
2022/05/28 04:21:07;;;;;;;18.98;4.38;;;10.40;99.90;;;;;;5051099;28;20098;-64
2022/05/28 04:23:33;;;;;;;29.25;4.75;;;10.40;99.90;;;;;;5054696;28;20140;-64
2022/05/28 04:25:59;;;;;;;22.08;6.03;;;10.40;99.90;;;;;;5062615;28;20417;-64
2022/05/28 04:28:24;;;;;;;10.68;4.22;;;10.30;99.90;;;;;;5063687;28;20120;-64
2022/05/28 04:30:50;;;;;;;14.85;4.63;;;10.20;99.90;;;;;;5062212;28;20043;-64
2022/05/28 04:33:16;;;;;;;29.25;5.85;;;10.20;99.90;;;;;;5056016;28;20044;-64
2022/05/28 04:35:42;;;;;;;15.05;4.97;;;10.20;99.90;;;;;;5071573;28;20036;-63
2022/05/28 04:38:08;;;;;;;16.90;4.60;;;10.10;99.90;;;;;;5067875;28;20450;-63
2022/05/28 04:40:34;;;;;;;16.38;4.95;;;10.10;99.90;;;;;;5061851;28;20123;-64
2022/05/28 04:43:00;;;;;;;31.23;6.55;;;10.00;99.90;;;;;;5066565;28;20087;-65
2022/05/28 04:45:25;;;;;;;18.70;6.22;;;9.90;99.90;;;;;;5067850;28;20040;-65
2022/05/28 04:47:51;;;;;;;18.15;6.10;;;9.90;99.90;;;;;;5060451;28;20482;-65
2022/05/28 04:50:16;;;;;;;18.17;6.82;;;9.90;99.90;;;;;;5062680;28;20163;-65
2022/05/28 04:52:42;;;;;;;20.60;5.80;;;9.90;99.90;;;;;;5054225;28;20048;-65
2022/05/28 04:55:10;;;;;;;18.63;5.55;;;9.90;99.90;;;;;;5056041;28;20052;-64
2022/05/28 04:57:37;;;;;;;24.83;6.60;;;10.00;99.90;;;;;;5059303;28;20028;-65
2022/05/28 05:00:10;;;;;;;22.10;6.35;;;10.00;99.90;;;;;;5058021;28;20059;-65
2022/05/28 05:02:36;;;;;;;26.30;6.47;;;10.10;99.90;;;;;;5058038;28;20106;-65
2022/05/28 05:05:03;;;;;;;14.05;4.95;;;10.10;99.90;;;;;;5062367;28;20044;-65
2022/05/28 05:07:28;;;;;;;26.50;6.15;;;10.10;99.90;;;;;;5063394;28;20045;-65
2022/05/28 05:09:54;;;;;;;30.15;6.75;;;10.10;99.90;;;;;;5069762;28;20039;-65
2022/05/28 05:12:19;;;;;;;28.70;6.28;;;10.20;99.90;;;;;;5070633;28;20040;-65
2022/05/28 05:14:45;;;;;;;29.05;8.35;;;10.20;99.90;;;;;;5066524;28;20111;-65
2022/05/28 05:17:11;;;;;;;21.88;5.55;;;10.30;99.90;;;;;;5070680;28;20037;-65
2022/05/28 05:19:36;;;;;;;17.10;5.38;;;10.40;99.90;;;;;;5062602;28;20106;-65
2022/05/28 05:22:02;;;;;;;24.83;6.63;;;10.50;99.90;;;;;;5056403;28;20033;-65
2022/05/28 05:24:28;;;;;;;16.85;6.13;;;10.50;99.90;;;;;;5067545;28;20032;-65
2022/05/28 05:26:53;;;;;;;23.60;6.70;;;10.50;99.90;;;;;;5070359;28;20072;-65
2022/05/28 05:29:19;;;;;;;26.45;6.50;;;10.50;99.90;;;;;;5069693;28;20501;-65
2022/05/28 05:31:45;;;;;;;32.85;6.60;;;10.60;99.90;;;;;;5070438;28;20051;-65
2022/05/28 05:34:11;;;;;;;18.48;5.60;;;10.60;99.90;;;;;;5066075;28;20056;-65
2022/05/28 05:36:37;;;;;;;27.15;6.18;;;10.70;99.90;;;;;;5062522;28;20036;-65
2022/05/28 05:39:03;;;;;;;17.30;6.88;;;10.70;99.90;;;;;;5066010;28;20105;-65
2022/05/28 05:41:29;;;;;;;21.95;6.38;;;10.80;99.90;;;;;;5064691;28;20122;-65
2022/05/28 05:43:54;;;;;;;18.90;6.38;;;10.90;99.90;;;;;;5060057;28;20074;-65
2022/05/28 05:46:20;;;;;;;22.30;5.88;;;11.00;99.90;;;;;;5059642;28;20283;-65
2022/05/28 05:48:46;;;;;;;20.48;5.60;;;11.00;99.90;;;;;;5059134;28;20481;-65
2022/05/28 05:51:14;;;;;;;26.85;7.13;;;11.10;99.90;;;;;;5057289;28;20056;-65
2022/05/28 05:53:40;;;;;;;;;;;11.10;99.90;;;;;;5063946;28;20040;-65
2022/05/28 05:56:06;;;;;;;16.90;5.65;;;11.20;99.90;;;;;;5056983;28;20069;-65
2022/05/28 05:58:34;;;;;;;28.05;6.85;;;11.20;99.90;;;;;;5056090;28;21813;-65
2022/05/28 06:01:01;;;;;;;21.15;6.13;;;11.30;99.90;;;;;;5062204;28;20111;-65
2022/05/28 06:03:29;;;;;;;25.25;6.43;;;11.30;99.90;;;;;;5063752;28;20042;-65
2022/05/28 06:06:00;;;;;;;22.25;5.13;;;11.30;99.90;;;;;;5053481;28;20032;-65
2022/05/28 06:08:26;;;;;;;25.40;6.70;;;11.30;99.90;;;;;;5052166;28;20044;-64
2022/05/28 06:10:52;;;;;;;19.80;6.32;;;11.30;99.90;;;;;;5053112;28;20036;-65
2022/05/28 06:13:18;;;;;;;25.38;6.82;;;11.40;99.90;;;;;;5052247;28;20041;-65
2022/05/28 06:15:45;;;;;;;17.52;5.72;;;11.50;99.90;;;;;;5054321;28;20052;-65
2022/05/28 06:18:15;;;;;;;20.30;6.20;;;11.60;99.90;;;;;;5054006;28;20044;-65
2022/05/28 06:20:41;;;;;;;24.50;6.45;;;11.70;99.90;;;;;;5055059;28;20090;-65
2022/05/28 06:23:07;;;;;;;19.95;6.65;;;11.70;99.90;;;;;;5051991;28;20041;-64
2022/05/28 06:25:33;;;;;;;19.42;6.30;;;11.80;99.90;;;;;;5054635;28;20425;-64
2022/05/28 06:27:59;;;;;;;15.07;5.18;;;11.90;99.90;;;;;;5052784;28;20041;-65
2022/05/28 06:30:25;;;;;;;24.23;6.07;;;11.90;99.90;;;;;;5056388;28;20094;-65
2022/05/28 06:32:51;;;;;;;23.73;6.78;;;12.00;99.90;;;;;;5055541;28;20045;-65
2022/05/28 06:35:18;;;;;;;18.42;5.35;;;12.10;99.90;;;;;;5057324;28;20052;-65
2022/05/28 06:37:43;;;;;;;29.33;6.28;;;12.10;99.90;;;;;;5058515;28;20510;-65
2022/05/28 06:40:09;;;;;;;20.33;5.50;;;12.20;99.90;;;;;;5059359;28;20060;-64
2022/05/28 06:42:35;;;;;;;22.55;5.47;;;12.30;99.90;;;;;;5059201;28;20041;-65
2022/05/28 06:45:01;;;;;;;24.98;5.93;;;12.40;99.90;;;;;;5050574;28;20697;-65
2022/05/28 06:47:27;;;;;;;19.25;5.38;;;12.40;99.90;;;;;;5050717;28;20370;-64
2022/05/28 06:52:37;;;;;;;16.83;4.97;;;12.40;99.90;;;;;;5051894;28;20132;-64
2022/05/28 06:55:04;;;;;;;21.25;5.75;;;12.50;99.90;;;;;;5052704;28;20036;-63
2022/05/28 06:57:30;;;;;;;20.73;6.22;;;12.60;99.90;;;;;;5053780;28;21047;-65
2022/05/28 06:59:58;;;;;;;20.42;6.57;;;12.60;99.90;;;;;;5052194;28;20055;-65
2022/05/28 07:02:24;;;;;;;;;;;12.50;99.90;;;;;;5052942;28;20128;-65
2022/05/28 07:04:49;;;;;;;16.75;5.00;;;12.30;99.90;;;;;;5051159;28;20706;-64
2022/05/28 07:07:15;;;;;;;27.45;6.03;;;12.20;99.90;;;;;;5052761;28;20079;-65
2022/05/28 07:09:41;;;;;;;15.40;5.75;;;12.40;99.90;;;;;;5047303;28;20036;-64
2022/05/28 07:12:07;;;;;;;20.55;5.38;;;12.50;99.90;;;;;;5055137;28;20044;-65
2022/05/28 07:14:33;;;;;;;20.90;6.10;;;12.60;99.90;;;;;;5048814;28;20049;-65
2022/05/28 07:16:59;;;;;;;14.32;4.63;;;12.90;99.90;;;;;;5052977;28;20037;-65
2022/05/28 07:19:24;;;;;;;28.08;6.07;;;13.00;99.90;;;;;;5055918;28;20049;-65
2022/05/28 07:21:50;;;;;;;22.98;6.00;;;13.20;99.90;;;;;;5050773;28;20124;-64
2022/05/28 07:24:16;;;;;;;13.68;5.50;;;13.20;99.90;;;;;;5048415;28;20037;-65
2022/05/28 07:26:41;;;;;;;14.75;5.22;;;13.20;99.90;;;;;;5050764;28;20099;-65
2022/05/28 07:29:08;;;;;;;11.88;4.45;;;13.30;99.90;;;;;;5046748;28;20560;-65
2022/05/28 07:31:34;;;;;;;12.25;4.40;;;13.30;99.90;;;;;;5052099;28;20522;-65
2022/05/28 07:34:00;;;;;;;16.95;4.65;;;13.10;99.90;;;;;;5056387;28;20139;-65
2022/05/28 07:36:26;;;;;;;5.13;3.88;;;13.10;99.90;;;;;;5048945;28;20040;-65
2022/05/28 07:38:53;;;;;;;18.75;5.63;;;13.00;99.90;;;;;;5046921;28;20116;-64
2022/05/28 07:41:22;;;;;;;20.15;4.43;;;12.90;99.90;;;;;;5052557;28;20068;-64
2022/05/28 07:43:50;;;;;;;17.35;5.55;;;13.00;99.90;;;;;;5047627;28;20072;-64
2022/05/28 07:46:19;;;;;;;18.30;4.68;;;13.10;99.90;;;;;;5054252;28;20117;-64
2022/05/28 07:48:45;;;;;;;13.88;4.82;;;13.10;99.90;;;;;;5059861;28;20984;-63
2022/05/28 07:51:11;;;;;;;10.18;4.68;;;13.00;99.90;;;;;;5052039;28;20052;-64
2022/05/28 07:53:37;;;;;;;16.38;4.53;;;13.00;99.90;;;;;;5057959;28;20059;-64
2022/05/28 07:56:05;;;;;;;19.48;5.45;;;13.10;99.90;;;;;;5051133;28;20048;-64
2022/05/28 07:58:30;;;;;;;14.88;4.32;;;13.10;99.90;;;;;;5049538;28;20053;-63
2022/05/28 08:00:56;;;;;;;10.80;4.50;;;13.20;99.90;;;;;;5059155;28;20102;-63
2022/05/28 08:03:22;;;;;;;12.90;5.22;;;13.20;99.90;;;;;;5060070;28;20040;-63
2022/05/28 08:05:50;;;;;;;22.77;5.88;;;13.20;99.90;;;;;;5055008;28;20044;-63
2022/05/28 08:08:18;;;;;;;25.48;6.03;;;13.20;99.90;;;;;;5055303;28;20120;-63
2022/05/28 08:10:44;;;;;;;13.88;5.55;;;13.30;99.90;;;;;;5055571;28;20083;-64
2022/05/28 08:13:13;;;;;;;21.77;5.53;;;13.40;99.90;;;;;;5053086;28;20123;-64
2022/05/28 08:15:42;;;;;;;22.20;7.30;;;13.40;99.90;;;;;;5050650;28;20037;-63
2022/05/28 08:18:09;;;;;;;20.45;5.53;;;13.50;99.90;;;;;;5054369;28;20048;-63
2022/05/28 08:23:20;;;;;;;20.10;4.90;;;13.70;99.90;;;;;;5050683;28;20080;-63
2022/05/28 08:25:48;;;;;;;16.48;6.65;;;14.20;99.90;;;;;;5052048;28;20115;-63
2022/05/28 08:28:15;;;;;;;25.80;6.22;;;14.40;99.90;;;;;;5054184;28;20045;-67
2022/05/28 08:30:41;;;;;;;20.98;6.57;;;14.40;99.90;;;;;;5061249;28;20056;-65
2022/05/28 08:33:08;;;;;;;26.10;7.32;;;14.30;99.90;;;;;;5063973;28;20643;-65
2022/05/28 08:35:35;;;;;;;32.50;6.60;;;14.10;99.90;;;;;;5061451;28;20084;-65
2022/05/28 08:38:06;;;;;;;21.83;6.53;;;14.00;99.90;;;;;;5060581;28;20115;-65
2022/05/28 08:40:37;;;;;;;29.17;5.72;;;14.00;99.90;;;;;;5056869;28;20494;-65
2022/05/28 08:43:04;;;;;;;20.55;6.35;;;14.10;99.90;;;;;;5065917;28;20047;-65
2022/05/28 08:45:32;;;;;;;18.73;6.03;;;14.40;99.90;;;;;;5055505;28;20037;-64
2022/05/28 08:48:00;;;;;;;18.90;5.60;;;14.50;99.90;;;;;;5059765;28;20040;-65
2022/05/28 08:50:27;;;;;;;14.75;5.50;;;14.50;99.90;;;;;;5059293;28;20075;-64
2022/05/28 08:53:04;;;;;;;22.77;6.03;;;14.40;99.90;;;;;;5055348;28;20079;-64
2022/05/28 08:55:45;;;;;;;18.65;6.25;;;14.50;99.90;;;;;;5056323;28;20568;-65
2022/05/28 08:58:17;;;;;;;23.77;5.72;;;14.50;99.90;;;;;;5065762;28;20461;-65
2022/05/28 09:00:45;;;;;;;21.92;5.88;;;14.40;99.90;;;;;;5058310;28;20441;-64
2022/05/28 09:03:16;;;;;;;13.38;5.72;;;14.30;99.90;;;;;;5048893;28;20083;-64
2022/05/28 09:05:58;;;;;;;13.93;4.63;;;14.30;99.90;;;;;;5059557;28;20397;-65
2022/05/28 09:08:31;;;;;;;12.70;5.55;;;14.20;99.90;;;;;;5056668;28;20049;-65
2022/05/28 09:11:06;;;;;;;21.55;5.95;;;14.40;99.90;;;;;;5061499;28;20048;-65
2022/05/28 09:13:46;;;;;;;22.70;6.45;;;14.70;99.90;;;;;;5062131;28;20076;-65
2022/05/28 09:16:31;;;;;;;25.58;6.38;;;15.00;99.90;;;;;;5061791;28;20044;-65
2022/05/28 09:19:03;;;;;;;23.23;6.72;;;15.20;99.90;;;;;;5067154;28;20410;-65
2022/05/28 09:21:29;;;;;;;21.67;6.85;;;15.20;99.90;;;;;;5059143;28;20045;-64
2022/05/28 09:24:03;;;;;;;18.10;5.78;;;15.00;99.90;;;;;;5069217;28;20033;-64
2022/05/28 09:26:31;;;;;;;18.52;5.25;;;14.80;99.90;;;;;;5056983;28;20163;-64
2022/05/28 09:29:38;;;;;;;17.30;5.60;;;14.70;99.90;;;;;;5064580;28;20091;-65
2022/05/28 09:32:25;;;;;;;24.65;6.38;;;14.60;99.90;;;;;;5062763;28;20159;-65
2022/05/28 09:34:57;;;;;;;18.80;4.63;;;14.70;99.90;;;;;;5065295;28;20050;-65
2022/05/28 09:37:32;;;;;;;21.15;5.03;;;15.20;99.90;;;;;;5068951;28;20037;-66
2022/05/28 09:40:36;;;;;;;21.38;6.35;;;15.70;99.90;;;;;;5067943;28;20040;-65
2022/05/28 09:43:28;;;;;;;17.48;5.75;;;16.00;99.90;;;;;;5065368;28;20099;-65
2022/05/28 09:46:22;;;;;;;26.73;5.03;;;16.30;99.90;;;;;;5053392;28;20112;-65
2022/05/28 09:49:15;;;;;;;22.33;5.93;;;16.20;99.90;;;;;;5058665;28;20048;-65
2022/05/28 09:51:55;;;;;;;15.68;5.03;;;15.80;99.90;;;;;;5070828;28;20046;-65
2022/05/28 09:54:24;;;;;;;15.57;4.65;;;15.60;99.90;;;;;;5067597;28;20408;-65
2022/05/28 09:57:09;;;;;;;16.63;5.75;;;15.40;99.90;;;;;;5064442;28;20068;-66
2022/05/28 09:59:44;;;;;;;23.38;6.85;;;15.20;99.90;;;;;;5062076;28;20047;-66
2022/05/28 10:02:24;;;;;;;15.38;5.88;;;15.00;99.90;;;;;;5053657;28;20843;-65
2022/05/28 10:05:11;;;;;;;18.75;5.25;;;15.00;99.90;;;;;;5057418;28;20044;-66
2022/05/28 10:07:55;;;;;;;20.17;5.25;;;14.90;99.90;;;;;;5060979;28;20041;-67
2022/05/28 10:10:32;;;;;;;24.50;4.80;;;15.10;99.90;;;;;;5053257;28;20041;-68
2022/05/28 10:13:18;;;;;;;22.75;4.88;;;15.30;99.90;;;;;;5062383;28;20041;-66
2022/05/28 10:15:49;;;;;;;20.92;4.82;;;15.50;99.90;;;;;;5053683;28;20041;-66
2022/05/28 10:18:25;;;;;;;19.45;5.35;;;15.70;99.90;;;;;;5070121;28;20075;-66
2022/05/28 10:21:14;;;;;;;26.45;5.55;;;16.00;99.90;;;;;;5058312;28;20053;-66
2022/05/28 10:23:42;;;;;;;9.07;4.38;;;16.40;99.90;;;;;;5056100;28;20478;-66
2022/05/28 10:26:25;;;;;;;24.80;5.10;;;16.50;99.90;;;;;;5062035;28;20079;-67
2022/05/28 10:29:04;;;;;;;15.40;4.47;;;16.50;99.90;;;;;;5060078;28;20068;-66
2022/05/28 10:31:40;;;;;;;13.23;5.90;;;16.30;99.90;;;;;;5053562;28;20510;-66
2022/05/28 10:34:07;;;;;;;15.15;5.22;;;15.90;99.90;;;;;;5051693;28;20041;-66
2022/05/28 10:36:35;;;;;;;18.50;5.43;;;15.70;99.90;;;;;;5056057;28;20045;-66
2022/05/28 10:39:19;;;;;;;26.65;5.95;;;15.50;99.90;;;;;;5063649;28;20033;-67
2022/05/28 10:41:50;;;;;;;18.88;5.13;;;15.40;99.90;;;;;;5052598;28;20045;-67
2022/05/28 10:44:16;;;;;;;21.98;5.00;;;15.10;99.90;;;;;;5058689;28;20063;-67
2022/05/28 10:46:48;;;;;;;24.10;6.13;;;15.10;99.90;;;;;;5066314;28;20478;-66
2022/05/28 10:49:40;;;;;;;15.27;7.72;;;15.40;99.90;;;;;;5055313;28;20047;-67
2022/05/28 10:52:24;;;;;;;20.73;5.90;;;15.60;99.90;;;;;;5051308;28;20061;-67
2022/05/28 10:55:22;;;;;;;19.30;6.22;;;15.70;99.90;;;;;;5059748;28;20043;-67
2022/05/28 10:57:59;;;;;;;;;;;15.70;99.90;;;;;;5012210;28;20091;-67
2022/05/28 11:00:50;;;;;;;17.58;4.70;;;15.80;99.90;;;;;;5062042;28;19982;-67
2022/05/28 11:03:40;;;;;;;13.98;3.97;;;15.90;99.90;;;;;;5058380;28;20041;-67
2022/05/28 11:06:43;;;;;;;14.20;4.43;;;16.00;99.90;;;;;;5066265;28;20047;-67
2022/05/28 11:09:18;;;;;;;18.42;4.70;;;16.10;99.90;;;;;;5067436;28;20094;-67
2022/05/28 11:12:03;;;;;;;25.95;5.93;;;16.40;99.90;;;;;;5057064;28;20049;-67
2022/05/28 11:14:51;;;;;;;15.25;4.20;;;16.80;99.90;;;;;;5062835;28;20037;-66
2022/05/28 11:17:26;;;;;;;16.48;4.47;;;17.10;99.90;;;;;;5062954;28;20166;-66
2022/05/28 11:20:30;;;;;;;20.65;4.93;;;17.00;99.90;;;;;;5052124;28;20145;-68
2022/05/28 11:23:22;;;;;;;13.85;3.83;;;17.00;99.90;;;;;;5056308;28;20041;-68
2022/05/28 11:26:00;;;;;;;7.40;2.83;;;16.90;99.90;;;;;;5049330;28;20060;-67
2022/05/28 11:28:28;;;;;;;9.88;3.38;;;16.90;94.60;;;;;;5058078;28;20037;-67
2022/05/28 11:30:59;;;;;;;12.73;3.42;;;17.00;92.10;;;;;;5049016;28;20059;-66
2022/05/28 11:33:35;;;;;;;16.48;4.35;;;17.10;97.40;;;;;;5052614;28;20084;-67
2022/05/28 11:36:18;;;;;;;15.30;3.70;;;17.20;95.90;;;;;;5065579;28;20036;-67
2022/05/28 11:38:58;;;;;;;13.73;4.28;;;17.20;89.00;;;;;;5062757;28;20571;-67
2022/05/28 11:41:33;;;;;;;25.77;4.43;;;17.20;94.10;;;;;;5061052;28;20125;-67
2022/05/28 11:44:11;;;;;;;8.45;3.42;;;16.90;82.60;;;;;;5067636;28;20055;-66
2022/05/28 11:46:40;;;;;;;15.63;3.67;;;17.00;91.90;;;;;;5055775;28;20124;-65
2022/05/28 11:52:21;;;;;;;11.60;3.35;;;17.30;73.30;;;;;;5012126;28;20689;-66
2022/05/28 11:55:00;;;;;;;16.63;4.10;;;17.20;81.70;;;;;;5016985;28;20052;-66
2022/05/28 11:57:34;;;;;;;9.15;3.22;;;16.90;79.80;;;;;;5009579;28;20037;-66
2022/05/28 12:00:03;;;;;;;13.43;4.28;;;16.70;85.60;;;;;;5006985;28;20053;-66
2022/05/28 12:02:38;;;;;;;11.60;4.68;;;16.60;88.20;;;;;;5010548;28;20403;-67
2022/05/28 12:05:15;;;;;;;18.45;4.32;;;16.50;92.50;;;;;;5007627;28;20152;-67
2022/05/28 12:07:43;;;;;;;16.13;5.53;;;16.40;93.90;;;;;;5012766;28;20042;-67
2022/05/28 12:10:27;;;;;;;21.15;5.20;;;16.40;92.70;;;;;;5006650;28;20721;-67
2022/05/28 12:13:00;;;;;;;19.23;4.70;;;16.50;95.30;;;;;;5016992;28;20037;-67
2022/05/28 12:15:29;;;;;;;13.43;4.25;;;16.70;96.70;;;;;;5014848;28;20041;-67
2022/05/28 12:18:09;;;;;;;9.82;4.15;;;16.70;92.90;;;;;;5011728;28;20563;-67
2022/05/28 12:20:51;;;;;;;13.35;4.05;;;16.60;90.60;;;;;;5012739;28;20568;-67
2022/05/28 12:23:28;;;;;;;16.52;5.18;;;16.50;96.20;;;;;;5013846;28;20045;-67
2022/05/28 12:25:54;;;;;;;22.95;6.30;;;16.10;99.90;;;;;;5017042;28;20052;-67
2022/05/28 12:28:43;;;;;;;20.60;4.88;;;15.90;99.90;;;;;;5013522;28;20042;-68
2022/05/28 12:31:21;;;;;;;23.38;5.95;;;15.60;99.90;;;;;;5010302;28;20131;-69
2022/05/28 12:33:59;;;;;;;21.38;5.13;;;15.20;99.90;;;;;;5008069;28;20089;-69
2022/05/28 12:36:41;;;;;;;14.48;4.13;;;15.20;99.90;;;;;;5009330;28;20042;-70
2022/05/28 12:39:13;;;;;;;10.02;5.38;;;15.20;99.90;;;;;;5014132;28;20052;-70
2022/05/28 12:41:40;;;;;;;29.13;5.43;;;15.30;99.90;;;;;;5012894;28;20045;-70
2022/05/28 12:44:22;;;;;;;21.80;6.03;;;15.20;99.90;;;;;;5022324;28;20095;-70
2022/05/28 12:46:54;;;;;;;11.93;5.32;;;15.40;99.90;;;;;;5015908;28;20068;-70
2022/05/28 12:49:50;;;;;;;23.50;6.28;;;15.50;99.90;;;;;;5008666;28;20081;-70
2022/05/28 12:52:38;;;;;;;25.02;5.75;;;15.80;99.90;;;;;;5010986;28;20152;-70
2022/05/28 12:55:17;;;;;;;;;;;16.00;99.90;;;;;;5013070;28;20856;-70
2022/05/28 12:57:43;;;;;;;14.93;5.53;;;16.20;99.90;;;;;;5015048;28;19967;-70
2022/05/28 13:00:24;;;;;;;14.85;4.85;;;16.30;99.90;;;;;;5015213;28;20068;-70
2022/05/28 13:02:50;;;;;;;16.55;5.35;;;16.30;99.90;;;;;;5015845;28;20388;-69
2022/05/28 13:05:38;;;;;;;15.55;6.53;;;16.30;99.90;;;;;;5017450;28;20133;-70
2022/05/28 13:08:14;;;;;;;;;;;16.10;99.90;;;;;;5012585;28;20056;-69
2022/05/28 13:11:04;;;;;;;19.45;5.63;;;16.10;99.90;;;;;;5017822;28;19924;-69